Time;durP1;ratioP1;P1;durP2;ratioP2;P2;SDS_P1;SDS_P2;PMS_P1;PMS_P2;Temp;Humidity;BMP_temperature;BMP_pressure;BME280_temperature;BME280_humidity;BME280_pressure;Samples;Min_cycle;Max_cycle;Signal;HPM_P1;HPM_P2
2021/07/14 00:01:42;;;;;;;1999.90;999.90;;;19.90;99.90;;;;;;5083361;28;20449;-86
2021/07/14 00:04:16;;;;;;;1999.90;999.90;;;20.00;99.90;;;;;;5083640;28;20492;-86
2021/07/14 00:06:46;;;;;;;1999.90;999.90;;;20.00;99.90;;;;;;5100330;28;20453;-86
2021/07/14 00:09:15;;;;;;;1999.90;999.90;;;20.10;99.90;;;;;;5100565;28;20762;-86
2021/07/14 00:11:45;;;;;;;1999.90;999.90;;;20.10;99.90;;;;;;5082771;28;20407;-86
2021/07/14 00:22:12;;;;;;;1999.90;999.90;;;20.10;99.90;;;;;;5101140;28;20391;-86
2021/07/14 00:24:41;;;;;;;1999.90;999.90;;;20.10;99.90;;;;;;5099526;28;20939;-86
2021/07/14 00:27:09;;;;;;;1999.90;999.90;;;20.10;99.90;;;;;;5100245;28;20544;-86
2021/07/14 00:29:37;;;;;;;1999.90;999.90;;;20.10;99.90;;;;;;5100555;28;20843;-86
2021/07/14 00:32:08;;;;;;;1999.90;999.90;;;20.10;99.90;;;;;;5100789;28;20496;-86
2021/07/14 00:34:34;;;;;;;1999.90;999.90;;;20.10;99.90;;;;;;5082110;28;20777;-86
2021/07/14 00:37:00;;;;;;;1999.90;999.90;;;20.10;99.90;;;;;;5100693;28;20418;-86
2021/07/14 00:39:26;;;;;;;1999.90;999.90;;;20.10;99.90;;;;;;5100338;28;20229;-86
2021/07/14 00:41:54;;;;;;;1999.90;999.90;;;20.10;99.90;;;;;;5098354;28;20167;-87
2021/07/14 00:44:20;;;;;;;1999.90;999.90;;;20.00;99.90;;;;;;5101147;28;20200;-86
2021/07/14 00:46:52;;;;;;;1999.90;999.90;;;20.00;99.90;;;;;;5103188;28;20844;-87
2021/07/14 00:49:18;;;;;;;1999.90;999.90;;;19.90;99.90;;;;;;5085638;28;20156;-86
2021/07/14 00:51:47;;;;;;;1999.90;999.90;;;19.80;99.90;;;;;;5104138;28;20410;-87
2021/07/14 00:54:14;;;;;;;1999.90;999.90;;;19.70;99.90;;;;;;5102021;28;20408;-86
2021/07/14 00:56:40;;;;;;;1999.90;999.90;;;19.70;99.90;;;;;;5084822;28;20428;-86
2021/07/14 00:59:06;;;;;;;1999.90;999.90;;;19.60;99.90;;;;;;5101997;28;20935;-86
2021/07/14 01:01:35;;;;;;;1999.90;999.90;;;19.60;99.90;;;;;;5103887;28;20949;-86
2021/07/14 01:04:03;;;;;;;1999.90;999.90;;;19.50;99.90;;;;;;5101652;28;20413;-86
2021/07/14 01:06:41;;;;;;;1999.90;999.90;;;19.50;99.90;;;;;;5102629;28;20454;-86
2021/07/14 01:09:09;;;;;;;1999.90;999.90;;;19.60;99.90;;;;;;5084945;28;20408;-86
2021/07/14 01:11:41;;;;;;;1999.90;999.90;;;19.70;99.90;;;;;;5103729;28;20468;-86
2021/07/14 01:14:09;;;;;;;1999.90;999.90;;;19.70;99.90;;;;;;5103527;28;20385;-86
2021/07/14 01:16:47;;;;;;;1999.90;999.90;;;19.70;99.90;;;;;;5099227;28;20492;-86
2021/07/14 01:19:42;;;;;;;1999.90;999.90;;;19.70;99.90;;;;;;5103511;28;20464;-86
2021/07/14 01:22:23;;;;;;;1999.90;999.90;;;19.70;99.90;;;;;;5080386;28;20416;-86
2021/07/14 01:25:29;;;;;;;1999.90;999.90;;;19.70;99.90;;;;;;5103021;28;20757;-87
2021/07/14 01:27:59;;;;;;;1999.90;999.90;;;19.70;99.90;;;;;;5088815;28;20461;-87
2021/07/14 01:30:33;;;;;;;1999.90;999.90;;;19.70;99.90;;;;;;5103680;28;20870;-86
2021/07/14 01:33:01;;;;;;;1999.90;999.90;;;19.70;99.90;;;;;;5085102;28;20508;-86
2021/07/14 01:35:32;;;;;;;1999.90;999.90;;;19.80;99.90;;;;;;5084341;28;20413;-86
2021/07/14 01:38:00;;;;;;;1999.90;999.90;;;19.80;99.90;;;;;;5102937;28;20456;-86
2021/07/14 01:40:27;;;;;;;1999.90;999.90;;;19.70;99.90;;;;;;5102068;28;20387;-86
2021/07/14 01:43:00;;;;;;;1999.90;999.90;;;19.80;99.90;;;;;;5102944;28;20422;-87
2021/07/14 01:45:31;;;;;;;1999.90;999.90;;;19.70;99.90;;;;;;5102387;28;20480;-86
2021/07/14 01:48:00;;;;;;;1999.90;999.90;;;19.60;99.90;;;;;;5084591;28;20437;-87
2021/07/14 01:50:28;;;;;;;1999.90;999.90;;;19.50;99.90;;;;;;5084259;28;20405;-86
2021/07/14 01:52:55;;;;;;;1999.90;999.90;;;19.50;99.90;;;;;;5084484;28;20406;-86
2021/07/14 01:55:22;;;;;;;1999.90;999.90;;;19.50;99.90;;;;;;5083573;28;20414;-86
2021/07/14 01:57:51;;;;;;;1999.90;999.90;;;19.40;99.90;;;;;;5084038;28;20425;-87
2021/07/14 02:00:17;;;;;;;1999.90;999.90;;;19.40;99.90;;;;;;5101797;28;20402;-86
2021/07/14 02:03:28;;;;;;;1999.90;999.90;;;19.50;99.90;;;;;;5084388;28;20409;-86
2021/07/14 02:05:53;;;;;;;1999.90;999.90;;;19.50;99.90;;;;;;5101033;28;20525;-87
2021/07/14 02:08:18;;;;;;;1999.90;999.90;;;19.50;99.90;;;;;;5100271;28;20456;-86
2021/07/14 02:10:48;;;;;;;1999.90;999.90;;;19.50;99.90;;;;;;5100076;28;20504;-86
2021/07/14 02:13:16;;;;;;;1999.90;999.90;;;19.50;99.90;;;;;;5101780;28;20159;-87
2021/07/14 02:15:43;;;;;;;1999.90;999.90;;;19.50;99.90;;;;;;5101388;28;20414;-86
2021/07/14 02:18:14;;;;;;;1999.90;999.90;;;19.50;99.90;;;;;;5101960;28;20424;-86
2021/07/14 02:20:40;;;;;;;1999.90;999.90;;;19.50;99.90;;;;;;5102003;28;20837;-86
2021/07/14 02:23:09;;;;;;;1999.90;999.90;;;19.50;99.90;;;;;;5102398;28;20401;-86
2021/07/14 02:25:35;;;;;;;1999.90;999.90;;;19.50;99.90;;;;;;5103025;28;20934;-86
2021/07/14 02:28:02;;;;;;;1999.90;999.90;;;19.50;99.90;;;;;;5102564;28;20441;-86
2021/07/14 02:30:28;;;;;;;1999.90;999.90;;;19.50;99.90;;;;;;5102167;28;20459;-86
2021/07/14 02:32:59;;;;;;;1999.90;999.90;;;19.40;99.90;;;;;;5100890;28;20405;-86
2021/07/14 02:35:26;;;;;;;1999.90;999.90;;;19.40;99.90;;;;;;5101871;28;20148;-86
2021/07/14 02:38:06;;;;;;;1999.90;999.90;;;19.40;99.90;;;;;;5101485;28;20525;-86
2021/07/14 02:40:38;;;;;;;1999.90;999.90;;;19.40;99.90;;;;;;5100567;28;20862;-87
2021/07/14 02:43:05;;;;;;;1999.90;999.90;;;19.30;99.90;;;;;;5100709;28;20422;-86
2021/07/14 02:45:36;;;;;;;1999.90;999.90;;;19.40;99.90;;;;;;5101243;28;20434;-86
2021/07/14 02:48:03;;;;;;;1999.90;999.90;;;19.30;99.90;;;;;;5150018;22;20489;-86
2021/07/14 02:50:34;;;;;;;1999.90;999.90;;;19.20;99.90;;;;;;5081250;28;20414;-86
2021/07/14 02:53:09;;;;;;;1999.90;999.90;;;19.20;99.90;;;;;;5081033;28;20414;-87
2021/07/14 02:55:38;;;;;;;1999.90;999.90;;;19.20;99.90;;;;;;5080566;28;20413;-86
2021/07/14 02:58:06;;;;;;;1999.90;999.90;;;19.20;99.90;;;;;;5081380;28;20437;-86
2021/07/14 03:00:35;;;;;;;1999.90;999.90;;;19.20;99.90;;;;;;5064072;28;20446;-86
2021/07/14 03:03:04;;;;;;;1999.90;999.90;;;19.10;99.90;;;;;;5161226;22;20841;-84
2021/07/14 03:05:30;;;;;;;1999.90;999.90;;;19.20;99.90;;;;;;5086518;28;20389;-82
2021/07/14 03:07:58;;;;;;;1999.90;999.90;;;19.30;99.90;;;;;;5106544;28;20805;-81
2021/07/14 03:10:25;;;;;;;1999.90;999.90;;;19.30;99.90;;;;;;5089092;28;20920;-81
2021/07/14 03:12:57;;;;;;;1999.90;999.90;;;19.40;99.90;;;;;;5106628;28;20420;-81
2021/07/14 03:15:25;;;;;;;1999.90;999.90;;;19.40;99.90;;;;;;5103791;28;20381;-81
2021/07/14 03:17:53;;;;;;;1999.90;999.90;;;19.50;99.90;;;;;;5105680;28;20405;-81
2021/07/14 03:20:20;;;;;;;1999.90;999.90;;;19.50;99.90;;;;;;5105146;28;20396;-83
2021/07/14 03:22:49;;;;;;;1999.90;999.90;;;19.50;99.90;;;;;;5069741;28;20421;-81
2021/07/14 03:25:15;;;;;;;1999.90;999.90;;;19.40;99.90;;;;;;5105293;28;20768;-81
2021/07/14 03:27:45;;;;;;;1999.90;999.90;;;19.40;99.90;;;;;;5104131;28;20448;-81
2021/07/14 03:30:12;;;;;;;1999.90;999.90;;;19.40;99.90;;;;;;5103706;28;20413;-81
2021/07/14 03:32:42;;;;;;;1999.90;999.90;;;19.40;99.90;;;;;;5102011;28;20394;-81
2021/07/14 03:35:12;;;;;;;1999.90;999.90;;;19.40;99.90;;;;;;5101552;28;20393;-81
2021/07/14 03:37:38;;;;;;;1999.90;999.90;;;19.50;99.90;;;;;;5101465;28;20761;-81
2021/07/14 03:40:06;;;;;;;1999.90;999.90;;;19.50;99.90;;;;;;5101477;28;20452;-81
2021/07/14 03:42:33;;;;;;;1999.90;999.90;;;19.50;99.90;;;;;;5084634;28;20420;-81
2021/07/14 03:45:00;;;;;;;1999.90;999.90;;;19.40;99.90;;;;;;5082996;28;20417;-81
2021/07/14 03:47:26;;;;;;;1999.90;999.90;;;19.40;99.90;;;;;;5101142;28;20464;-81
2021/07/14 03:49:54;;;;;;;1999.90;999.90;;;19.40;99.90;;;;;;5103258;28;20428;-81
2021/07/14 03:52:22;;;;;;;1999.90;999.90;;;19.50;99.90;;;;;;5101527;28;20402;-81
2021/07/14 03:54:49;;;;;;;1999.90;999.90;;;19.40;99.90;;;;;;5103632;28;20409;-81
2021/07/14 03:57:14;;;;;;;1999.90;999.90;;;19.50;99.90;;;;;;5086282;28;20467;-81
2021/07/14 03:59:41;;;;;;;1999.90;999.90;;;19.40;99.90;;;;;;5103586;28;20409;-81
2021/07/14 04:02:10;;;;;;;1999.90;999.90;;;19.50;99.90;;;;;;5106408;28;20413;-81
2021/07/14 04:04:36;;;;;;;1999.90;999.90;;;19.40;99.90;;;;;;5105752;28;20424;-81
2021/07/14 04:07:14;;;;;;;1999.90;999.90;;;19.40;99.90;;;;;;5087758;28;20568;-81
2021/07/14 04:09:47;;;;;;;1999.90;999.90;;;19.40;99.90;;;;;;5088258;28;20753;-81
2021/07/14 04:12:14;;;;;;;1999.90;999.90;;;19.40;99.90;;;;;;5089342;28;20399;-81
2021/07/14 04:14:41;;;;;;;1999.90;999.90;;;19.40;99.90;;;;;;5107175;28;20409;-81
2021/07/14 04:17:07;;;;;;;1999.90;999.90;;;19.40;99.90;;;;;;5107048;28;20425;-81
2021/07/14 04:19:33;;;;;;;1999.90;999.90;;;19.30;99.90;;;;;;5107185;28;20496;-81
2021/07/14 04:21:59;;;;;;;1999.90;999.90;;;19.40;99.90;;;;;;5108277;28;20408;-81
2021/07/14 04:24:25;;;;;;;1999.90;999.90;;;19.40;99.90;;;;;;5107689;28;20405;-81
2021/07/14 04:26:51;;;;;;;1999.90;999.90;;;19.40;99.90;;;;;;5105496;28;20540;-81
2021/07/14 04:29:17;;;;;;;1999.90;999.90;;;19.40;99.90;;;;;;5102348;28;20175;-81
2021/07/14 04:31:44;;;;;;;1999.90;999.90;;;19.40;99.90;;;;;;5099915;28;20406;-81
2021/07/14 04:34:10;;;;;;;1999.90;999.90;;;19.40;99.90;;;;;;5099221;28;20406;-80
2021/07/14 04:36:37;;;;;;;1999.90;999.90;;;19.40;99.90;;;;;;5082428;28;20509;-80
2021/07/14 04:39:04;;;;;;;1999.90;999.90;;;19.40;99.90;;;;;;5078975;28;20797;-79
2021/07/14 04:41:29;;;;;;;1999.90;999.90;;;19.30;99.90;;;;;;5098834;28;20492;-79
2021/07/14 04:44:05;;;;;;;1999.90;999.90;;;19.30;99.90;;;;;;5098333;28;20436;-80
2021/07/14 04:46:31;;;;;;;1999.90;999.90;;;19.30;99.90;;;;;;5101475;28;20243;-79
2021/07/14 04:48:57;;;;;;;1999.90;999.90;;;19.30;99.90;;;;;;5083647;28;20420;-79
2021/07/14 04:51:23;;;;;;;1999.90;999.90;;;19.30;99.90;;;;;;5102405;28;20401;-79
2021/07/14 04:53:49;;;;;;;1999.90;999.90;;;19.30;99.90;;;;;;5101413;28;20988;-79
2021/07/14 04:56:18;;;;;;;1999.90;999.90;;;19.40;99.90;;;;;;5100679;28;20188;-79
2021/07/14 04:58:45;;;;;;;1999.90;999.90;;;19.40;99.90;;;;;;5100914;28;20408;-79
2021/07/14 05:01:13;;;;;;;1999.90;999.90;;;19.40;99.90;;;;;;5083281;28;20409;-79
2021/07/14 05:03:40;;;;;;;1999.90;999.90;;;19.40;99.90;;;;;;5101877;28;20421;-79
2021/07/14 05:06:05;;;;;;;1999.90;999.90;;;19.40;99.90;;;;;;5099019;28;20417;-79
2021/07/14 05:08:31;;;;;;;1999.90;999.90;;;19.40;99.90;;;;;;5100601;28;20457;-79
2021/07/14 05:10:57;;;;;;;1999.90;999.90;;;19.40;99.90;;;;;;5099103;28;20228;-79
2021/07/14 05:13:22;;;;;;;1999.90;999.90;;;19.40;99.90;;;;;;5082844;28;20235;-79
2021/07/14 05:15:48;;;;;;;1999.90;999.90;;;19.40;99.90;;;;;;5097931;28;20187;-79
2021/07/14 05:18:14;;;;;;;1999.90;999.90;;;19.40;99.90;;;;;;5097562;28;20174;-79
2021/07/14 05:20:41;;;;;;;1999.90;999.90;;;19.40;99.90;;;;;;5098281;28;20236;-80
2021/07/14 05:23:07;;;;;;;1999.90;999.90;;;19.50;99.90;;;;;;5079981;28;20460;-80
2021/07/14 05:25:34;;;;;;;1999.90;999.90;;;19.50;99.90;;;;;;5097948;28;20421;-79
2021/07/14 05:28:00;;;;;;;1999.90;999.90;;;19.50;99.90;;;;;;5098504;28;20449;-80
2021/07/14 05:30:25;;;;;;;1999.90;999.90;;;19.50;99.90;;;;;;5099092;28;20437;-80
2021/07/14 05:32:51;;;;;;;1999.90;999.90;;;19.50;99.90;;;;;;5105007;28;20167;-80
2021/07/14 05:35:17;;;;;;;1999.90;999.90;;;19.50;99.90;;;;;;5105389;28;20585;-79
2021/07/14 05:37:42;;;;;;;1999.90;999.90;;;19.50;99.90;;;;;;5102998;28;20522;-79
2021/07/14 05:40:08;;;;;;;1999.90;999.90;;;19.50;99.90;;;;;;5101522;28;20522;-79
2021/07/14 05:42:34;;;;;;;1999.90;999.90;;;19.50;99.90;;;;;;5083372;28;20257;-79
2021/07/14 05:45:00;;;;;;;1999.90;999.90;;;19.50;99.90;;;;;;5100227;28;20437;-79
2021/07/14 05:47:25;;;;;;;1999.90;999.90;;;19.50;99.90;;;;;;5100684;28;20221;-80
2021/07/14 05:49:51;;;;;;;1999.90;999.90;;;19.50;99.90;;;;;;5083779;28;20167;-79
2021/07/14 05:52:16;;;;;;;1999.90;999.90;;;19.60;99.90;;;;;;5103499;28;20157;-80
2021/07/14 05:54:42;;;;;;;1999.90;999.90;;;19.50;99.90;;;;;;5102230;28;20225;-80
2021/07/14 05:57:08;;;;;;;1999.90;999.90;;;19.50;99.90;;;;;;5084096;28;20591;-80
2021/07/14 05:59:34;;;;;;;1999.90;999.90;;;19.50;99.90;;;;;;5102838;28;20450;-80
2021/07/14 06:02:00;;;;;;;1999.90;999.90;;;19.60;99.90;;;;;;5101426;28;20484;-80
2021/07/14 06:04:26;;;;;;;1999.90;999.90;;;19.50;99.90;;;;;;5101621;28;20269;-80
2021/07/14 06:06:51;;;;;;;1999.90;999.90;;;19.50;99.90;;;;;;5099628;28;20194;-80
2021/07/14 06:09:17;;;;;;;1999.90;999.90;;;19.50;99.90;;;;;;5098898;28;20237;-79
2021/07/14 06:11:42;;;;;;;1999.90;999.90;;;19.50;99.90;;;;;;5098495;28;20166;-79
2021/07/14 06:14:09;;;;;;;1999.90;999.90;;;19.50;99.90;;;;;;5097509;28;20159;-78
2021/07/14 06:16:34;;;;;;;1999.90;999.90;;;19.50;99.90;;;;;;5096353;28;20275;-78
2021/07/14 06:19:00;;;;;;;1999.90;999.90;;;19.50;99.90;;;;;;5096803;28;20434;-78
2021/07/14 06:21:26;;;;;;;1999.90;999.90;;;19.50;99.90;;;;;;5096457;28;20171;-78
2021/07/14 06:23:51;;;;;;;1999.90;999.90;;;19.50;99.90;;;;;;5095939;28;20163;-77
2021/07/14 06:26:17;;;;;;;1999.90;999.90;;;19.50;99.90;;;;;;5095416;28;20183;-77
2021/07/14 06:28:44;;;;;;;1999.90;999.90;;;19.50;99.90;;;;;;5095622;28;20239;-77
2021/07/14 06:31:09;;;;;;;1999.90;999.90;;;19.50;99.90;;;;;;5095807;28;20421;-77
2021/07/14 06:33:36;;;;;;;1999.90;999.90;;;19.50;99.90;;;;;;5094265;28;20394;-77
2021/07/14 06:36:04;;;;;;;1999.90;999.90;;;19.50;99.90;;;;;;5095219;28;20176;-77
2021/07/14 06:38:30;;;;;;;1999.90;999.90;;;19.50;99.90;;;;;;5095485;28;20475;-77
2021/07/14 06:40:57;;;;;;;1999.90;999.90;;;19.50;99.90;;;;;;5093686;28;20410;-77
2021/07/14 06:43:31;;;;;;;1999.90;999.90;;;19.50;99.90;;;;;;5094864;28;20402;-77
2021/07/14 06:45:57;;;;;;;1999.90;999.90;;;19.50;99.90;;;;;;5094937;28;20421;-77
2021/07/14 06:48:22;;;;;;;1999.90;999.90;;;19.50;99.90;;;;;;5095264;28;20448;-77
2021/07/14 06:50:48;;;;;;;1999.90;999.90;;;19.50;99.90;;;;;;5077174;28;20164;-77
2021/07/14 06:53:14;;;;;;;1999.90;999.90;;;19.50;99.90;;;;;;5095121;28;20164;-77
2021/07/14 06:55:39;;;;;;;1999.90;999.90;;;19.50;99.90;;;;;;5094883;28;20202;-76
2021/07/14 06:58:05;;;;;;;1999.90;999.90;;;19.50;99.90;;;;;;5094715;28;20192;-77
2021/07/14 07:00:35;;;;;;;1999.90;999.90;;;19.50;99.90;;;;;;5093527;28;20216;-77
2021/07/14 07:03:01;;;;;;;1999.90;999.90;;;19.50;99.90;;;;;;5094507;28;20172;-76
2021/07/14 07:05:26;;;;;;;1999.90;999.90;;;19.50;99.90;;;;;;5094840;28;20383;-76
2021/07/14 07:07:52;;;;;;;1999.90;999.90;;;19.40;99.90;;;;;;5076213;28;20442;-77
2021/07/14 07:10:18;;;;;;;1999.90;999.90;;;19.40;99.90;;;;;;5094723;28;20627;-77
2021/07/14 07:12:43;;;;;;;1999.90;999.90;;;19.40;99.90;;;;;;5094662;28;20634;-77
2021/07/14 07:15:10;;;;;;;1999.90;999.90;;;19.40;99.90;;;;;;5094483;28;20174;-77
2021/07/14 07:17:35;;;;;;;1999.90;999.90;;;19.40;99.90;;;;;;5094360;28;20191;-77
2021/07/14 07:20:02;;;;;;;1999.90;999.90;;;19.40;99.90;;;;;;5094873;28;20405;-77
2021/07/14 07:22:27;;;;;;;1999.90;999.90;;;19.40;99.90;;;;;;5094242;28;20175;-77
2021/07/14 07:24:55;;;;;;;1999.90;999.90;;;19.40;99.90;;;;;;5094717;28;20398;-77
2021/07/14 07:27:23;;;;;;;1999.90;999.90;;;19.50;99.90;;;;;;5092714;28;20195;-76
2021/07/14 07:29:49;;;;;;;1999.90;999.90;;;19.50;99.90;;;;;;5094664;28;20756;-76
2021/07/14 07:32:14;;;;;;;1999.90;999.90;;;19.50;99.90;;;;;;5094221;28;20458;-76
2021/07/14 07:34:42;;;;;;;1999.90;999.90;;;19.50;99.90;;;;;;5094162;28;20743;-76
2021/07/14 07:37:08;;;;;;;1999.90;999.90;;;19.50;99.90;;;;;;5093945;28;20270;-76
2021/07/14 07:39:34;;;;;;;1999.90;999.90;;;19.50;99.90;;;;;;5094171;28;20433;-75
2021/07/14 07:42:02;;;;;;;1999.90;999.90;;;19.40;99.90;;;;;;5094203;28;20244;-76
2021/07/14 07:44:28;;;;;;;1999.90;999.90;;;19.40;99.90;;;;;;5092528;28;20421;-76
2021/07/14 07:46:54;;;;;;;1999.90;999.90;;;19.40;99.90;;;;;;5093861;28;21010;-76
2021/07/14 07:49:20;;;;;;;1999.90;999.90;;;19.40;99.90;;;;;;5093871;28;20397;-76
2021/07/14 07:51:45;;;;;;;1999.90;999.90;;;19.40;99.90;;;;;;5075762;28;20216;-76
2021/07/14 07:54:11;;;;;;;1999.90;999.90;;;19.40;99.90;;;;;;5092966;28;20535;-76
2021/07/14 07:56:36;;;;;;;1999.90;999.90;;;19.40;99.90;;;;;;5093714;28;20179;-76
2021/07/14 07:59:03;;;;;;;1999.90;999.90;;;19.40;99.90;;;;;;5093749;28;20191;-76
2021/07/14 08:01:29;;;;;;;1999.90;999.90;;;19.40;99.90;;;;;;5092334;28;20650;-76
2021/07/14 08:03:55;;;;;;;1999.90;999.90;;;19.40;99.90;;;;;;5092285;28;20464;-76
2021/07/14 08:06:21;;;;;;;1999.90;999.90;;;19.40;99.90;;;;;;5093403;28;20838;-76
2021/07/14 08:08:47;;;;;;;1999.90;999.90;;;19.40;99.90;;;;;;5093465;28;20398;-76
2021/07/14 08:11:13;;;;;;;1999.90;999.90;;;19.30;99.90;;;;;;5093601;28;20244;-76
2021/07/14 08:13:39;;;;;;;1999.90;999.90;;;19.30;99.90;;;;;;5093424;28;20401;-76
2021/07/14 08:16:05;;;;;;;1999.90;999.90;;;19.20;99.90;;;;;;5093505;28;20418;-76
2021/07/14 08:18:30;;;;;;;1999.90;999.90;;;19.20;99.90;;;;;;5092144;28;20171;-76
2021/07/14 08:20:57;;;;;;;1999.90;999.90;;;19.30;99.90;;;;;;5093312;28;20397;-76
2021/07/14 08:23:24;;;;;;;1999.90;999.90;;;19.20;99.90;;;;;;5092072;28;20254;-76
2021/07/14 08:25:53;;;;;;;1999.90;999.90;;;19.20;99.90;;;;;;5093271;28;20497;-76
2021/07/14 08:28:20;;;;;;;1999.90;999.90;;;19.20;99.90;;;;;;5093201;28;20440;-76
2021/07/14 08:30:46;;;;;;;1999.90;999.90;;;19.10;99.90;;;;;;5075126;28;20479;-76
2021/07/14 08:33:12;;;;;;;1999.90;999.90;;;19.10;99.90;;;;;;5093536;28;20399;-76
2021/07/14 08:35:40;;;;;;;1999.90;999.90;;;19.00;99.90;;;;;;5093117;28;20455;-76
2021/07/14 08:38:06;;;;;;;1999.90;999.90;;;19.10;99.90;;;;;;5091900;28;20646;-76
2021/07/14 08:40:32;;;;;;;1999.90;999.90;;;19.20;99.90;;;;;;5093194;28;20402;-77
2021/07/14 08:43:01;;;;;;;1999.90;999.90;;;19.30;99.90;;;;;;5093218;28;20434;-76
2021/07/14 08:45:26;;;;;;;1999.90;999.90;;;19.20;99.90;;;;;;5093196;28;20163;-76
2021/07/14 08:47:52;;;;;;;1999.90;999.90;;;19.30;99.90;;;;;;5092997;28;20478;-76
2021/07/14 08:50:20;;;;;;;1999.90;999.90;;;19.40;99.90;;;;;;5093040;28;20629;-76
2021/07/14 08:52:49;;;;;;;1999.90;999.90;;;19.50;99.90;;;;;;5093296;28;20206;-76
2021/07/14 08:55:18;;;;;;;1999.90;999.90;;;19.60;99.90;;;;;;5092850;28;21029;-76
2021/07/14 08:57:45;;;;;;;1999.90;999.90;;;19.60;99.90;;;;;;5093012;28;20399;-76
2021/07/14 09:00:18;;;;;;;1999.90;999.90;;;19.70;99.90;;;;;;5093253;28;20382;-76
2021/07/14 09:02:44;;;;;;;1999.90;999.90;;;19.60;99.90;;;;;;5139285;22;20434;-80
2021/07/14 09:05:11;;;;;;;1999.90;999.90;;;19.70;99.90;;;;;;5077253;28;20449;-80
2021/07/14 09:07:37;;;;;;;1999.90;999.90;;;19.70;99.90;;;;;;5097681;28;20819;-80
2021/07/14 09:10:09;;;;;;;1999.90;999.90;;;19.80;99.90;;;;;;5097756;28;20410;-80
2021/07/14 09:12:46;;;;;;;1999.90;999.90;;;19.80;99.90;;;;;;5097742;28;20758;-81
2021/07/14 09:15:15;;;;;;;1999.90;999.90;;;19.80;99.90;;;;;;5079562;28;20405;-81
2021/07/14 09:17:55;;;;;;;1999.90;999.90;;;19.80;99.90;;;;;;5097799;28;20409;-80
2021/07/14 09:20:26;;;;;;;1999.90;999.90;;;19.80;99.90;;;;;;5097632;28;20472;-81
2021/07/14 09:23:09;;;;;;;1999.90;999.90;;;19.80;99.90;;;;;;5078758;28;20409;-81
2021/07/14 09:25:52;;;;;;;1999.90;999.90;;;19.80;99.90;;;;;;5097489;28;20427;-81
2021/07/14 09:28:22;;;;;;;1999.90;999.90;;;19.70;99.90;;;;;;5079623;28;20452;-81
2021/07/14 09:31:10;;;;;;;1999.90;999.90;;;19.70;99.90;;;;;;5097763;28;20386;-81
2021/07/14 09:33:40;;;;;;;1999.90;999.90;;;19.70;99.90;;;;;;5079348;28;20397;-82
2021/07/14 09:36:06;;;;;;;1999.90;999.90;;;19.70;99.90;;;;;;5098628;28;20419;-82
2021/07/14 09:38:40;;;;;;;1999.90;999.90;;;19.70;99.90;;;;;;5096776;28;20424;-82
2021/07/14 09:41:09;;;;;;;1999.90;999.90;;;19.70;99.90;;;;;;5097991;28;20676;-82
2021/07/14 09:43:37;;;;;;;1999.90;999.90;;;19.70;99.90;;;;;;5097946;28;20497;-82
2021/07/14 09:46:09;;;;;;;1999.90;999.90;;;19.70;99.90;;;;;;5097704;28;20782;-81
2021/07/14 09:48:41;;;;;;;1999.90;999.90;;;19.70;99.90;;;;;;5097489;28;20476;-82
2021/07/14 09:51:12;;;;;;;1999.90;999.90;;;19.70;99.90;;;;;;5098106;28;20434;-82
2021/07/14 09:53:42;;;;;;;1999.90;999.90;;;19.70;99.90;;;;;;5097900;28;20780;-82
2021/07/14 09:56:27;;;;;;;1999.90;999.90;;;19.70;99.90;;;;;;5098178;28;20425;-82
2021/07/14 09:59:06;;;;;;;1999.90;999.90;;;19.60;99.90;;;;;;5097835;28;20385;-82
2021/07/14 10:01:43;;;;;;;1999.90;999.90;;;19.60;99.90;;;;;;5097442;28;20393;-82
2021/07/14 10:04:13;;;;;;;1999.90;999.90;;;19.60;99.90;;;;;;5097468;28;20424;-82
2021/07/14 10:06:39;;;;;;;1999.90;999.90;;;19.60;99.90;;;;;;5079393;28;20957;-82
2021/07/14 10:09:05;;;;;;;1999.90;999.90;;;19.70;99.90;;;;;;5096453;28;20466;-81
2021/07/14 10:11:32;;;;;;;1999.90;999.90;;;19.70;99.90;;;;;;5096305;28;20483;-82
2021/07/14 10:14:07;;;;;;;1999.90;999.90;;;19.70;99.90;;;;;;5095994;28;20405;-82
2021/07/14 10:16:35;;;;;;;1999.90;999.90;;;19.70;99.90;;;;;;5078681;28;20474;-81
2021/07/14 10:19:02;;;;;;;1999.90;999.90;;;19.60;99.90;;;;;;5097352;28;20408;-81
2021/07/14 10:21:29;;;;;;;1999.90;999.90;;;19.60;99.90;;;;;;5097111;28;20404;-81
2021/07/14 10:23:56;;;;;;;1999.90;999.90;;;19.60;99.90;;;;;;5079144;28;20398;-81
2021/07/14 10:26:22;;;;;;;1999.90;999.90;;;19.60;99.90;;;;;;5078784;28;20429;-81
2021/07/14 10:28:51;;;;;;;1999.90;999.90;;;19.60;99.90;;;;;;5079254;28;20421;-81
2021/07/14 10:31:21;;;;;;;1999.90;999.90;;;19.60;99.90;;;;;;5095631;28;20471;-80
2021/07/14 10:33:52;;;;;;;1999.90;999.90;;;19.60;99.90;;;;;;5096882;28;20446;-80
2021/07/14 10:36:29;;;;;;;1999.90;999.90;;;19.60;99.90;;;;;;5078142;28;20441;-81
2021/07/14 10:39:17;;;;;;;1999.90;999.90;;;19.60;99.90;;;;;;5097019;28;20390;-81
2021/07/14 10:41:43;;;;;;;1999.90;999.90;;;19.60;99.90;;;;;;5096096;28;20414;-80
2021/07/14 10:44:10;;;;;;;1999.90;999.90;;;19.60;99.90;;;;;;5096045;28;20412;-80
2021/07/14 10:46:38;;;;;;;1999.90;999.90;;;19.60;99.90;;;;;;5077746;28;20839;-81
2021/07/14 10:49:08;;;;;;;1999.90;999.90;;;19.60;99.90;;;;;;5096081;28;20397;-80
2021/07/14 10:51:34;;;;;;;1999.90;999.90;;;19.50;99.90;;;;;;5077853;28;20924;-81
2021/07/14 10:54:03;;;;;;;1999.90;999.90;;;19.50;99.90;;;;;;5095896;28;20405;-81
2021/07/14 10:56:40;;;;;;;1999.90;999.90;;;19.50;99.90;;;;;;5078190;28;20944;-80
2021/07/14 10:59:06;;;;;;;1999.90;999.90;;;19.60;99.90;;;;;;5096008;28;20386;-81
2021/07/14 11:01:50;;;;;;;1999.90;999.90;;;19.60;99.90;;;;;;5095937;28;20412;-80
2021/07/14 11:04:27;;;;;;;1999.90;999.90;;;19.70;99.90;;;;;;5095450;28;20504;-80
2021/07/14 11:07:06;;;;;;;1999.90;999.90;;;19.60;99.90;;;;;;5095407;28;20449;-80
2021/07/14 11:09:36;;;;;;;1999.90;999.90;;;19.60;99.90;;;;;;5077742;28;20406;-80
2021/07/14 11:12:14;;;;;;;1999.90;999.90;;;19.60;99.90;;;;;;5077299;28;20459;-81
2021/07/14 11:15:03;;;;;;;1999.90;999.90;;;19.60;99.90;;;;;;5077348;28;20440;-80
2021/07/14 11:17:34;;;;;;;1999.90;999.90;;;19.60;99.90;;;;;;5072069;28;20429;-81
2021/07/14 11:20:11;;;;;;;1999.90;999.90;;;19.70;99.90;;;;;;5095950;28;20382;-82
2021/07/14 11:22:41;;;;;;;1999.90;999.90;;;19.70;99.90;;;;;;5095550;28;20410;-82
2021/07/14 11:25:08;;;;;;;1999.90;999.90;;;19.70;99.90;;;;;;5096076;28;20383;-81
2021/07/14 11:27:34;;;;;;;1999.90;999.90;;;19.70;99.90;;;;;;5077611;28;20449;-82
2021/07/14 11:30:03;;;;;;;1999.90;999.90;;;19.70;99.90;;;;;;5095436;28;20478;-83
2021/07/14 11:32:40;;;;;;;1999.90;999.90;;;19.70;99.90;;;;;;5094261;28;20199;-81
2021/07/14 11:35:06;;;;;;;1999.90;999.90;;;19.70;99.90;;;;;;5093925;28;20397;-82
2021/07/14 11:37:56;;;;;;;1999.90;999.90;;;19.60;99.90;;;;;;5095795;28;20421;-82
2021/07/14 11:40:22;;;;;;;1999.90;999.90;;;19.60;99.90;;;;;;5077233;28;20213;-82
2021/07/14 11:42:47;;;;;;;1999.90;999.90;;;19.60;99.90;;;;;;5095140;28;20897;-83
2021/07/14 11:45:14;;;;;;;1999.90;999.90;;;19.50;99.90;;;;;;5093724;28;20171;-82
2021/07/14 11:47:40;;;;;;;1999.90;999.90;;;19.50;99.90;;;;;;5094950;28;20214;-81
2021/07/14 11:50:07;;;;;;;1999.90;999.90;;;19.50;99.90;;;;;;5094065;28;20456;-81
2021/07/14 11:52:43;;;;;;;1999.90;999.90;;;19.50;99.90;;;;;;5075653;28;20188;-81
2021/07/14 11:55:28;;;;;;;1999.90;999.90;;;19.50;99.90;;;;;;5076537;28;20457;-81
2021/07/14 11:57:54;;;;;;;1999.90;999.90;;;19.50;99.90;;;;;;5086152;28;20416;-81
2021/07/14 12:00:34;;;;;;;1999.90;999.90;;;19.50;99.90;;;;;;5093934;28;20402;-80
2021/07/14 12:03:05;;;;;;;1999.90;999.90;;;19.50;99.90;;;;;;5093634;28;20481;-80
2021/07/14 12:05:36;;;;;;;1999.90;999.90;;;19.50;99.90;;;;;;5075387;28;20408;-81
2021/07/14 12:08:12;;;;;;;1999.90;999.90;;;19.50;99.90;;;;;;5075575;28;20445;-81
2021/07/14 12:10:54;;;;;;;1999.90;999.90;;;19.50;99.90;;;;;;5076686;28;20409;-82
2021/07/14 12:13:22;;;;;;;1999.90;999.90;;;19.50;99.90;;;;;;5094225;28;20385;-81
2021/07/14 12:15:48;;;;;;;1999.90;999.90;;;19.50;99.90;;;;;;5076075;28;20500;-81